sensor_id;sensor_type;location;lat;lon;timestamp;temperature;humidity
41168;DHT22;26906;45.658;9.272;2023-10-08T07:12:31;20.50;99.90
41168;DHT22;26906;45.658;9.272;2023-10-08T07:15:06;20.60;99.90
41168;DHT22;26906;45.658;9.272;2023-10-08T07:17:37;20.80;99.90
41168;DHT22;26906;45.658;9.272;2023-10-08T07:20:09;20.90;99.90
41168;DHT22;26906;45.658;9.272;2023-10-08T07:22:48;21.10;99.90
41168;DHT22;26906;45.658;9.272;2023-10-08T07:25:22;21.20;99.90
41168;DHT22;26906;45.658;9.272;2023-10-08T07:27:48;21.30;99.90
41168;DHT22;26906;45.658;9.272;2023-10-08T07:30:15;21.50;99.90
41168;DHT22;26906;45.658;9.272;2023-10-08T07:32:52;21.70;99.90
41168;DHT22;26906;45.658;9.272;2023-10-08T07:35:23;21.80;99.90
41168;DHT22;26906;45.658;9.272;2023-10-08T07:37:51;22.00;99.90
41168;DHT22;26906;45.658;9.272;2023-10-08T07:40:19;22.30;99.90
41168;DHT22;26906;45.658;9.272;2023-10-08T07:42:46;22.50;99.90
41168;DHT22;26906;45.658;9.272;2023-10-08T07:45:18;22.60;99.90
41168;DHT22;26906;45.658;9.272;2023-10-08T07:47:43;22.60;99.90
41168;DHT22;26906;45.658;9.272;2023-10-08T07:50:10;22.60;99.90
41168;DHT22;26906;45.658;9.272;2023-10-08T07:52:39;22.80;99.90
41168;DHT22;26906;45.658;9.272;2023-10-08T07:55:10;22.90;99.90
41168;DHT22;26906;45.658;9.272;2023-10-08T07:57:36;23.00;99.90
41168;DHT22;26906;45.658;9.272;2023-10-08T08:00:01;23.00;99.90
41168;DHT22;26906;45.658;9.272;2023-10-08T08:02:44;23.00;99.90
41168;DHT22;26906;45.658;9.272;2023-10-08T08:05:10;23.00;99.90
41168;DHT22;26906;45.658;9.272;2023-10-08T08:07:43;23.10;99.90
41168;DHT22;26906;45.658;9.272;2023-10-08T08:10:11;23.30;99.90
41168;DHT22;26906;45.658;9.272;2023-10-08T08:12:37;23.30;99.90
41168;DHT22;26906;45.658;9.272;2023-10-08T08:15:03;23.30;99.90
41168;DHT22;26906;45.658;9.272;2023-10-08T08:17:43;23.40;99.90
41168;DHT22;26906;45.658;9.272;2023-10-08T08:20:10;23.50;99.90
41168;DHT22;26906;45.658;9.272;2023-10-08T08:22:44;23.70;99.90
41168;DHT22;26906;45.658;9.272;2023-10-08T08:25:19;23.90;99.90
41168;DHT22;26906;45.658;9.272;2023-10-08T08:28:08;24.00;99.90
41168;DHT22;26906;45.658;9.272;2023-10-08T08:30:43;24.20;99.90
41168;DHT22;26906;45.658;9.272;2023-10-08T08:33:13;24.40;99.90
41168;DHT22;26906;45.658;9.272;2023-10-08T08:35:39;24.40;99.90
41168;DHT22;26906;45.658;9.272;2023-10-08T08:38:07;24.50;99.90
41168;DHT22;26906;45.658;9.272;2023-10-08T08:40:34;24.50;99.90
41168;DHT22;26906;45.658;9.272;2023-10-08T08:42:59;24.70;99.90
41168;DHT22;26906;45.658;9.272;2023-10-08T08:45:31;24.70;99.90
41168;DHT22;26906;45.658;9.272;2023-10-08T08:48:00;24.90;99.90
41168;DHT22;26906;45.658;9.272;2023-10-08T08:50:26;25.00;99.90
41168;DHT22;26906;45.658;9.272;2023-10-08T08:52:52;25.10;99.90
41168;DHT22;26906;45.658;9.272;2023-10-08T08:55:18;25.20;99.90
41168;DHT22;26906;45.658;9.272;2023-10-08T08:57:50;25.30;99.90
41168;DHT22;26906;45.658;9.272;2023-10-08T09:00:18;25.40;99.90
41168;DHT22;26906;45.658;9.272;2023-10-08T09:02:45;25.60;99.90
41168;DHT22;26906;45.658;9.272;2023-10-08T09:05:13;25.70;99.90
41168;DHT22;26906;45.658;9.272;2023-10-08T09:08:03;25.50;99.90
41168;DHT22;26906;45.658;9.272;2023-10-08T09:10:31;25.50;99.90
41168;DHT22;26906;45.658;9.272;2023-10-08T09:13:06;25.60;99.90
41168;DHT22;26906;45.658;9.272;2023-10-08T09:15:33;25.80;99.90
41168;DHT22;26906;45.658;9.272;2023-10-08T09:17:59;26.00;99.90
41168;DHT22;26906;45.658;9.272;2023-10-08T09:20:27;26.10;99.90
41168;DHT22;26906;45.658;9.272;2023-10-08T09:23:16;26.10;99.90
41168;DHT22;26906;45.658;9.272;2023-10-08T09:25:45;26.10;99.90
41168;DHT22;26906;45.658;9.272;2023-10-08T09:28:11;26.20;99.90
41168;DHT22;26906;45.658;9.272;2023-10-08T09:30:40;26.20;99.90
41168;DHT22;26906;45.658;9.272;2023-10-08T09:33:10;26.40;99.90
41168;DHT22;26906;45.658;9.272;2023-10-08T09:35:38;26.40;99.90
41168;DHT22;26906;45.658;9.272;2023-10-08T09:38:07;26.50;99.90
41168;DHT22;26906;45.658;9.272;2023-10-08T09:40:40;26.60;99.90
41168;DHT22;26906;45.658;9.272;2023-10-08T09:43:09;26.80;99.90
41168;DHT22;26906;45.658;9.272;2023-10-08T09:45:38;26.70;99.90
41168;DHT22;26906;45.658;9.272;2023-10-08T09:48:07;27.00;99.90
41168;DHT22;26906;45.658;9.272;2023-10-08T09:50:40;27.20;99.90
41168;DHT22;26906;45.658;9.272;2023-10-08T09:53:10;27.40;99.90
41168;DHT22;26906;45.658;9.272;2023-10-08T09:58:15;27.60;99.90
41168;DHT22;26906;45.658;9.272;2023-10-08T10:00:43;27.70;99.90
41168;DHT22;26906;45.658;9.272;2023-10-08T10:03:10;27.70;99.90
41168;DHT22;26906;45.658;9.272;2023-10-08T10:05:38;28.00;99.90
41168;DHT22;26906;45.658;9.272;2023-10-08T10:08:04;28.10;99.90
41168;DHT22;26906;45.658;9.272;2023-10-08T10:10:37;28.20;99.90
41168;DHT22;26906;45.658;9.272;2023-10-08T10:13:12;28.30;99.90
41168;DHT22;26906;45.658;9.272;2023-10-08T10:15:38;28.20;99.90
41168;DHT22;26906;45.658;9.272;2023-10-08T10:18:14;28.10;99.90
41168;DHT22;26906;45.658;9.272;2023-10-08T10:20:51;28.20;99.90
41168;DHT22;26906;45.658;9.272;2023-10-08T10:23:36;28.20;99.90
41168;DHT22;26906;45.658;9.272;2023-10-08T10:26:04;28.20;99.90
41168;DHT22;26906;45.658;9.272;2023-10-08T10:28:30;28.20;99.90
41168;DHT22;26906;45.658;9.272;2023-10-08T10:30:55;28.30;99.90
41168;DHT22;26906;45.658;9.272;2023-10-08T10:33:32;28.40;99.90
41168;DHT22;26906;45.658;9.272;2023-10-08T10:36:01;28.30;99.90
41168;DHT22;26906;45.658;9.272;2023-10-08T10:38:27;28.40;99.90
41168;DHT22;26906;45.658;9.272;2023-10-08T10:40:55;28.50;99.90
41168;DHT22;26906;45.658;9.272;2023-10-08T10:43:25;28.60;99.90
41168;DHT22;26906;45.658;9.272;2023-10-08T10:46:02;28.70;99.90
41168;DHT22;26906;45.658;9.272;2023-10-08T10:48:46;28.70;99.90
41168;DHT22;26906;45.658;9.272;2023-10-08T10:51:30;28.80;99.90
41168;DHT22;26906;45.658;9.272;2023-10-08T10:53:57;28.90;99.90
41168;DHT22;26906;45.658;9.272;2023-10-08T10:56:26;29.00;99.90
41168;DHT22;26906;45.658;9.272;2023-10-08T10:59:05;29.10;99.90
41168;DHT22;26906;45.658;9.272;2023-10-08T11:01:45;29.00;99.90
41168;DHT22;26906;45.658;9.272;2023-10-08T11:04:12;29.20;99.90
41168;DHT22;26906;45.658;9.272;2023-10-08T11:06:45;29.10;99.90
41168;DHT22;26906;45.658;9.272;2023-10-08T11:09:12;29.20;99.90
41168;DHT22;26906;45.658;9.272;2023-10-08T11:12:02;29.20;99.90
41168;DHT22;26906;45.658;9.272;2023-10-08T11:14:28;29.40;99.90
41168;DHT22;26906;45.658;9.272;2023-10-08T11:16:55;29.50;99.90
41168;DHT22;26906;45.658;9.272;2023-10-08T11:19:20;29.50;99.90
41168;DHT22;26906;45.658;9.272;2023-10-08T11:21:51;29.60;99.90
41168;DHT22;26906;45.658;9.272;2023-10-08T11:24:30;29.50;99.90
41168;DHT22;26906;45.658;9.272;2023-10-08T11:27:01;29.70;99.90
41168;DHT22;26906;45.658;9.272;2023-10-08T11:29:47;29.70;99.90
41168;DHT22;26906;45.658;9.272;2023-10-08T11:32:15;29.80;99.90
41168;DHT22;26906;45.658;9.272;2023-10-08T11:34:46;29.80;99.90
41168;DHT22;26906;45.658;9.272;2023-10-08T11:39:54;30.20;99.90
41168;DHT22;26906;45.658;9.272;2023-10-08T11:42:24;30.20;99.90
41168;DHT22;26906;45.658;9.272;2023-10-08T11:45:02;30.30;99.90
41168;DHT22;26906;45.658;9.272;2023-10-08T11:47:47;30.50;99.90
41168;DHT22;26906;45.658;9.272;2023-10-08T11:50:23;30.60;99.90
41168;DHT22;26906;45.658;9.272;2023-10-08T11:52:57;30.60;99.90
41168;DHT22;26906;45.658;9.272;2023-10-08T11:55:27;30.80;99.90
41168;DHT22;26906;45.658;9.272;2023-10-08T11:57:53;30.80;99.90
41168;DHT22;26906;45.658;9.272;2023-10-08T12:00:19;30.80;99.90
41168;DHT22;26906;45.658;9.272;2023-10-08T12:02:49;30.80;99.90
41168;DHT22;26906;45.658;9.272;2023-10-08T12:05:15;31.00;99.90
41168;DHT22;26906;45.658;9.272;2023-10-08T12:07:50;31.10;99.90
41168;DHT22;26906;45.658;9.272;2023-10-08T12:10:23;31.20;99.90
41168;DHT22;26906;45.658;9.272;2023-10-08T12:12:53;31.30;99.90
41168;DHT22;26906;45.658;9.272;2023-10-08T12:15:23;31.10;99.90
41168;DHT22;26906;45.658;9.272;2023-10-08T12:17:52;31.10;99.90
41168;DHT22;26906;45.658;9.272;2023-10-08T12:20:43;31.10;99.90
41168;DHT22;26906;45.658;9.272;2023-10-08T12:23:11;31.10;99.90
41168;DHT22;26906;45.658;9.272;2023-10-08T12:25:37;31.30;99.90
41168;DHT22;26906;45.658;9.272;2023-10-08T12:28:04;31.30;99.90
41168;DHT22;26906;45.658;9.272;2023-10-08T12:30:33;31.40;99.90
41168;DHT22;26906;45.658;9.272;2023-10-08T12:33:07;31.40;99.90
41168;DHT22;26906;45.658;9.272;2023-10-08T12:35:33;31.50;99.90
41168;DHT22;26906;45.658;9.272;2023-10-08T12:38:01;31.60;99.90
41168;DHT22;26906;45.658;9.272;2023-10-08T12:40:27;31.60;99.90
41168;DHT22;26906;45.658;9.272;2023-10-08T12:43:08;31.70;99.90
41168;DHT22;26906;45.658;9.272;2023-10-08T12:45:33;31.70;99.90
41168;DHT22;26906;45.658;9.272;2023-10-08T12:48:03;31.70;99.90
41168;DHT22;26906;45.658;9.272;2023-10-08T12:50:30;31.70;99.90
41168;DHT22;26906;45.658;9.272;2023-10-08T12:53:08;31.70;99.90
41168;DHT22;26906;45.658;9.272;2023-10-08T12:55:37;31.80;99.90
41168;DHT22;26906;45.658;9.272;2023-10-08T12:58:06;31.90;99.90
41168;DHT22;26906;45.658;9.272;2023-10-08T13:00:39;32.00;99.90
41168;DHT22;26906;45.658;9.272;2023-10-08T13:03:06;32.00;99.90
41168;DHT22;26906;45.658;9.272;2023-10-08T13:05:41;32.10;99.90
41168;DHT22;26906;45.658;9.272;2023-10-08T13:08:10;32.10;99.90
41168;DHT22;26906;45.658;9.272;2023-10-08T13:10:42;32.10;99.90
41168;DHT22;26906;45.658;9.272;2023-10-08T13:13:10;32.20;99.90
41168;DHT22;26906;45.658;9.272;2023-10-08T13:15:39;32.30;99.90
41168;DHT22;26906;45.658;9.272;2023-10-08T13:18:07;32.30;99.90
41168;DHT22;26906;45.658;9.272;2023-10-08T13:20:33;32.30;99.90
41168;DHT22;26906;45.658;9.272;2023-10-08T13:23:03;32.30;99.90
41168;DHT22;26906;45.658;9.272;2023-10-08T13:25:32;32.30;99.90
41168;DHT22;26906;45.658;9.272;2023-10-08T13:28:02;32.20;99.90
41168;DHT22;26906;45.658;9.272;2023-10-08T13:30:28;32.10;99.90
41168;DHT22;26906;45.658;9.272;2023-10-08T13:32:53;32.00;99.90
41168;DHT22;26906;45.658;9.272;2023-10-08T13:35:19;31.90;99.90
41168;DHT22;26906;45.658;9.272;2023-10-08T13:37:45;32.00;99.90
41168;DHT22;26906;45.658;9.272;2023-10-08T13:40:14;32.00;99.90
41168;DHT22;26906;45.658;9.272;2023-10-08T13:42:44;32.10;99.90
41168;DHT22;26906;45.658;9.272;2023-10-08T13:45:10;32.20;99.90
41168;DHT22;26906;45.658;9.272;2023-10-08T13:47:51;32.20;99.90
41168;DHT22;26906;45.658;9.272;2023-10-08T13:50:17;32.20;99.90
41168;DHT22;26906;45.658;9.272;2023-10-08T13:52:43;32.20;99.90
41168;DHT22;26906;45.658;9.272;2023-10-08T13:55:11;32.20;99.90
41168;DHT22;26906;45.658;9.272;2023-10-08T13:57:42;32.20;99.90
41168;DHT22;26906;45.658;9.272;2023-10-08T14:00:09;32.20;99.90
41168;DHT22;26906;45.658;9.272;2023-10-08T14:02:38;32.20;99.90
41168;DHT22;26906;45.658;9.272;2023-10-08T14:05:05;32.10;99.90
41168;DHT22;26906;45.658;9.272;2023-10-08T14:07:35;32.00;99.90
41168;DHT22;26906;45.658;9.272;2023-10-08T14:10:01;32.00;99.90
41168;DHT22;26906;45.658;9.272;2023-10-08T14:12:31;32.00;99.90
41168;DHT22;26906;45.658;9.272;2023-10-08T14:15:01;32.00;99.90
41168;DHT22;26906;45.658;9.272;2023-10-08T14:17:32;31.90;99.90
41168;DHT22;26906;45.658;9.272;2023-10-08T14:20:18;31.80;99.90
41168;DHT22;26906;45.658;9.272;2023-10-08T14:22:57;31.80;99.90
41168;DHT22;26906;45.658;9.272;2023-10-08T14:25:26;31.70;99.90
41168;DHT22;26906;45.658;9.272;2023-10-08T14:27:53;31.70;99.90
41168;DHT22;26906;45.658;9.272;2023-10-08T14:30:19;31.70;99.90
41168;DHT22;26906;45.658;9.272;2023-10-08T14:32:47;31.70;99.90
41168;DHT22;26906;45.658;9.272;2023-10-08T14:35:14;31.70;99.90
41168;DHT22;26906;45.658;9.272;2023-10-08T14:37:59;31.70;99.90
41168;DHT22;26906;45.658;9.272;2023-10-08T14:40:44;31.60;99.90
41168;DHT22;26906;45.658;9.272;2023-10-08T14:43:45;31.60;99.90
41168;DHT22;26906;45.658;9.272;2023-10-08T14:46:10;31.60;99.90
41168;DHT22;26906;45.658;9.272;2023-10-08T14:48:37;31.60;99.90
41168;DHT22;26906;45.658;9.272;2023-10-08T14:51:02;31.50;99.90
41168;DHT22;26906;45.658;9.272;2023-10-08T14:53:29;31.40;99.90
41168;DHT22;26906;45.658;9.272;2023-10-08T14:55:56;31.40;99.90
41168;DHT22;26906;45.658;9.272;2023-10-08T14:58:23;31.40;99.90
41168;DHT22;26906;45.658;9.272;2023-10-08T15:00:51;31.30;99.90
41168;DHT22;26906;45.658;9.272;2023-10-08T15:03:19;31.20;99.90
41168;DHT22;26906;45.658;9.272;2023-10-08T15:05:46;31.20;99.90
41168;DHT22;26906;45.658;9.272;2023-10-08T15:08:13;31.10;99.90
41168;DHT22;26906;45.658;9.272;2023-10-08T15:10:40;31.10;99.90
41168;DHT22;26906;45.658;9.272;2023-10-08T15:13:07;31.10;99.90
41168;DHT22;26906;45.658;9.272;2023-10-08T15:15:34;31.10;99.90
41168;DHT22;26906;45.658;9.272;2023-10-08T15:18:06;31.10;99.90
41168;DHT22;26906;45.658;9.272;2023-10-08T15:20:32;31.20;99.90
41168;DHT22;26906;45.658;9.272;2023-10-08T15:22:59;31.10;99.90
41168;DHT22;26906;45.658;9.272;2023-10-08T15:25:26;31.10;99.90
41168;DHT22;26906;45.658;9.272;2023-10-08T15:27:52;31.00;99.90
41168;DHT22;26906;45.658;9.272;2023-10-08T15:30:19;30.90;99.90
41168;DHT22;26906;45.658;9.272;2023-10-08T15:32:46;30.90;99.90
41168;DHT22;26906;45.658;9.272;2023-10-08T15:35:14;30.80;99.90
41168;DHT22;26906;45.658;9.272;2023-10-08T15:37:42;30.80;99.90
41168;DHT22;26906;45.658;9.272;2023-10-08T15:40:09;30.70;99.90
41168;DHT22;26906;45.658;9.272;2023-10-08T15:42:43;30.70;99.90
41168;DHT22;26906;45.658;9.272;2023-10-08T15:45:09;30.60;99.90
41168;DHT22;26906;45.658;9.272;2023-10-08T15:47:38;30.60;99.90
41168;DHT22;26906;45.658;9.272;2023-10-08T15:50:05;30.50;99.90
41168;DHT22;26906;45.658;9.272;2023-10-08T15:52:30;30.50;99.90
41168;DHT22;26906;45.658;9.272;2023-10-08T15:54:57;30.30;99.90
41168;DHT22;26906;45.658;9.272;2023-10-08T15:57:23;30.10;99.90
41168;DHT22;26906;45.658;9.272;2023-10-08T15:59:49;30.00;99.90
41168;DHT22;26906;45.658;9.272;2023-10-08T16:02:15;29.90;99.90
41168;DHT22;26906;45.658;9.272;2023-10-08T16:04:43;29.80;99.90
41168;DHT22;26906;45.658;9.272;2023-10-08T16:07:13;29.60;99.90
41168;DHT22;26906;45.658;9.272;2023-10-08T16:09:39;29.50;99.90
41168;DHT22;26906;45.658;9.272;2023-10-08T16:12:07;29.40;99.90
41168;DHT22;26906;45.658;9.272;2023-10-08T16:14:33;29.20;99.90
41168;DHT22;26906;45.658;9.272;2023-10-08T16:16:59;29.10;99.90
41168;DHT22;26906;45.658;9.272;2023-10-08T16:19:26;29.00;99.90
41168;DHT22;26906;45.658;9.272;2023-10-08T16:21:53;28.90;99.90
41168;DHT22;26906;45.658;9.272;2023-10-08T16:24:21;28.80;99.90
41168;DHT22;26906;45.658;9.272;2023-10-08T16:26:51;28.70;99.90
41168;DHT22;26906;45.658;9.272;2023-10-08T16:29:17;28.60;99.90
41168;DHT22;26906;45.658;9.272;2023-10-08T16:31:44;28.50;99.90
41168;DHT22;26906;45.658;9.272;2023-10-08T16:34:11;28.50;99.90
41168;DHT22;26906;45.658;9.272;2023-10-08T16:36:38;28.30;99.90
41168;DHT22;26906;45.658;9.272;2023-10-08T16:39:04;28.20;99.90
41168;DHT22;26906;45.658;9.272;2023-10-08T16:41:30;28.00;99.90
41168;DHT22;26906;45.658;9.272;2023-10-08T16:43:58;27.90;99.90
41168;DHT22;26906;45.658;9.272;2023-10-08T16:46:23;27.80;99.90
41168;DHT22;26906;45.658;9.272;2023-10-08T16:48:49;27.70;99.90
41168;DHT22;26906;45.658;9.272;2023-10-08T16:51:15;27.60;99.90
41168;DHT22;26906;45.658;9.272;2023-10-08T16:53:42;27.60;99.90
41168;DHT22;26906;45.658;9.272;2023-10-08T16:56:08;27.50;99.90
41168;DHT22;26906;45.658;9.272;2023-10-08T16:58:34;27.50;99.90
41168;DHT22;26906;45.658;9.272;2023-10-08T17:01:00;27.50;99.90
41168;DHT22;26906;45.658;9.272;2023-10-08T17:03:26;27.40;99.90
41168;DHT22;26906;45.658;9.272;2023-10-08T17:05:52;27.40;99.90
41168;DHT22;26906;45.658;9.272;2023-10-08T17:08:17;27.40;99.90
41168;DHT22;26906;45.658;9.272;2023-10-08T17:10:46;27.30;99.90
41168;DHT22;26906;45.658;9.272;2023-10-08T17:13:13;27.20;99.90
41168;DHT22;26906;45.658;9.272;2023-10-08T17:15:41;27.10;99.90
41168;DHT22;26906;45.658;9.272;2023-10-08T17:18:07;27.10;99.90
41168;DHT22;26906;45.658;9.272;2023-10-08T17:20:37;27.00;99.90
41168;DHT22;26906;45.658;9.272;2023-10-08T17:23:02;26.80;99.90
41168;DHT22;26906;45.658;9.272;2023-10-08T17:25:32;26.60;99.90
41168;DHT22;26906;45.658;9.272;2023-10-08T17:27:58;26.50;99.90
41168;DHT22;26906;45.658;9.272;2023-10-08T17:30:23;26.50;99.90
41168;DHT22;26906;45.658;9.272;2023-10-08T17:32:49;26.50;99.90
41168;DHT22;26906;45.658;9.272;2023-10-08T17:35:15;26.40;99.90
41168;DHT22;26906;45.658;9.272;2023-10-08T17:37:45;26.30;99.90
41168;DHT22;26906;45.658;9.272;2023-10-08T17:40:12;26.10;99.90
41168;DHT22;26906;45.658;9.272;2023-10-08T17:42:42;25.80;99.90
41168;DHT22;26906;45.658;9.272;2023-10-08T17:45:08;25.70;99.90
41168;DHT22;26906;45.658;9.272;2023-10-08T17:47:40;25.70;99.90
41168;DHT22;26906;45.658;9.272;2023-10-08T17:50:06;25.60;99.90
41168;DHT22;26906;45.658;9.272;2023-10-08T17:52:32;25.50;99.90
41168;DHT22;26906;45.658;9.272;2023-10-08T17:54:58;25.50;99.90
41168;DHT22;26906;45.658;9.272;2023-10-08T17:57:25;25.40;99.90
41168;DHT22;26906;45.658;9.272;2023-10-08T17:59:51;25.40;99.90
41168;DHT22;26906;45.658;9.272;2023-10-08T18:02:18;25.40;99.90
41168;DHT22;26906;45.658;9.272;2023-10-08T18:04:43;25.30;99.90
41168;DHT22;26906;45.658;9.272;2023-10-08T18:07:09;25.20;99.90
41168;DHT22;26906;45.658;9.272;2023-10-08T18:09:35;25.10;99.90
41168;DHT22;26906;45.658;9.272;2023-10-08T18:12:01;25.10;99.90
41168;DHT22;26906;45.658;9.272;2023-10-08T18:14:28;25.10;99.90
41168;DHT22;26906;45.658;9.272;2023-10-08T18:16:54;25.10;99.90
41168;DHT22;26906;45.658;9.272;2023-10-08T18:19:22;25.00;99.90
41168;DHT22;26906;45.658;9.272;2023-10-08T18:21:48;24.90;99.90
41168;DHT22;26906;45.658;9.272;2023-10-08T18:24:16;24.80;99.90
41168;DHT22;26906;45.658;9.272;2023-10-08T18:26:43;24.70;99.90
41168;DHT22;26906;45.658;9.272;2023-10-08T18:29:11;24.60;99.90
41168;DHT22;26906;45.658;9.272;2023-10-08T18:31:42;24.70;99.90
41168;DHT22;26906;45.658;9.272;2023-10-08T18:34:08;24.90;99.90
41168;DHT22;26906;45.658;9.272;2023-10-08T18:36:34;24.90;99.90
41168;DHT22;26906;45.658;9.272;2023-10-08T18:39:03;24.90;99.90
41168;DHT22;26906;45.658;9.272;2023-10-08T18:41:42;25.00;99.90
41168;DHT22;26906;45.658;9.272;2023-10-08T18:44:11;24.90;99.90
41168;DHT22;26906;45.658;9.272;2023-10-08T18:46:40;24.90;99.90
41168;DHT22;26906;45.658;9.272;2023-10-08T18:49:07;24.80;99.90
41168;DHT22;26906;45.658;9.272;2023-10-08T18:51:33;24.90;99.90
41168;DHT22;26906;45.658;9.272;2023-10-08T18:54:03;24.80;99.90
41168;DHT22;26906;45.658;9.272;2023-10-08T18:56:32;24.70;99.90
41168;DHT22;26906;45.658;9.272;2023-10-08T18:58:59;24.70;99.90
41168;DHT22;26906;45.658;9.272;2023-10-08T19:01:26;24.70;99.90
41168;DHT22;26906;45.658;9.272;2023-10-08T19:03:52;24.70;99.90
41168;DHT22;26906;45.658;9.272;2023-10-08T19:06:18;24.70;99.90
41168;DHT22;26906;45.658;9.272;2023-10-08T19:08:45;24.80;99.90
41168;DHT22;26906;45.658;9.272;2023-10-08T19:11:11;24.80;99.90
41168;DHT22;26906;45.658;9.272;2023-10-08T19:13:39;24.80;99.90
41168;DHT22;26906;45.658;9.272;2023-10-08T19:16:10;24.90;99.90
41168;DHT22;26906;45.658;9.272;2023-10-08T19:18:37;24.90;99.90
41168;DHT22;26906;45.658;9.272;2023-10-08T19:21:06;24.90;99.90
41168;DHT22;26906;45.658;9.272;2023-10-08T19:23:35;25.00;99.90
41168;DHT22;26906;45.658;9.272;2023-10-08T19:26:07;25.00;99.90
41168;DHT22;26906;45.658;9.272;2023-10-08T19:28:33;25.10;99.90
41168;DHT22;26906;45.658;9.272;2023-10-08T19:30:59;25.10;99.90
41168;DHT22;26906;45.658;9.272;2023-10-08T19:33:28;25.10;99.90
41168;DHT22;26906;45.658;9.272;2023-10-08T19:35:58;25.10;99.90
41168;DHT22;26906;45.658;9.272;2023-10-08T19:38:25;25.20;99.90
41168;DHT22;26906;45.658;9.272;2023-10-08T19:40:51;25.20;99.90
41168;DHT22;26906;45.658;9.272;2023-10-08T19:43:18;25.20;99.90
41168;DHT22;26906;45.658;9.272;2023-10-08T19:45:44;25.20;99.90
41168;DHT22;26906;45.658;9.272;2023-10-08T19:48:12;25.30;99.90
41168;DHT22;26906;45.658;9.272;2023-10-08T19:50:39;25.30;99.90
41168;DHT22;26906;45.658;9.272;2023-10-08T19:53:12;25.20;99.90
41168;DHT22;26906;45.658;9.272;2023-10-08T19:55:49;25.30;99.90
41168;DHT22;26906;45.658;9.272;2023-10-08T19:58:17;25.30;99.90
41168;DHT22;26906;45.658;9.272;2023-10-08T20:00:44;25.30;99.90
41168;DHT22;26906;45.658;9.272;2023-10-08T20:03:10;25.40;99.90
41168;DHT22;26906;45.658;9.272;2023-10-08T20:05:36;25.40;99.90
41168;DHT22;26906;45.658;9.272;2023-10-08T20:08:04;25.50;99.90
41168;DHT22;26906;45.658;9.272;2023-10-08T20:10:30;25.50;99.90
